x

Venice, Fl (venf1) Weather Station

3:00am - Mon 22nd Sep 2014 All times are EDT. -4 hours from GMT.

  • Wind
    6mph, 7mph gusts
  • Sea Temp 85°f
  • Air Temp 77°f
  • Sea Pressure 1015mb
  • Venice, Fl
  • Venice, Fl

More Historic Weather Station data

Upgrade to MSW Pro to gain access to the past 30 days of data for over 8000 Wavebouys and Weather Stations around the globe.

Join Pro

Comparision Forecast

View Surf forecast
   
Mon 09/22 3:00am 6 7 mph 1015mb 85f 77f
2:00am 5 6 mph 1015.2mb 85f 78f
1:00am 5 6 mph 1015.6mb 85f 79f
12:00am 6 7 mph 1016.1mb 86f 80f
Sun 09/21 11:00pm 8 9 mph 1016.5mb 86f 83f
10:00pm 3 5 mph 1016.5mb 86f 83f
9:00pm 2 3 mph 1015.5mb 86f 83f
8:00pm 3
mph
1015mb 86f 83f
7:00pm 6 7 mph 1014.7mb 86f 83f
6:00pm 6 7 mph 1014.2mb 86f 84f
5:00pm 9 10 mph 1014mb 86f 84f
4:00pm 9 10 mph 1014.3mb 85f 83f
3:00pm 7 8 mph 1014.6mb 85f 83f
2:00pm 2 3 mph 1015.2mb 85f 82f
1:00pm 8 9 mph 1015.6mb 84f 78f
12:00pm  -  1 mph 1015.9mb 84f 81f
11:00am 5 6 mph 1016mb 84f 77f
10:00am 6
mph
1015.7mb 84f 76f
9:00am 7 9 mph 1015.4mb 84f 76f
8:00am 8 9 mph 1014.7mb 84f 74f
7:00am 7 8 mph 1014mb 84f 74f
6:00am 9 11 mph 1013.3mb 84f 76f
5:00am 3 5 mph 1013.3mb 84f 76f
4:00am 7 8 mph 1013.1mb 85f 75f
3:00am 6
mph
1013mb 85f 75f
2:00am 5 6 mph 1013.6mb 84f 76f
1:00am 3 5 mph 1013.8mb 84f 78f
12:00am 8
mph
1013.5mb 84f 80f
Sat 09/20 11:00pm 10 11 mph 1013.5mb 84f 79f
10:00pm 14 16 mph 1014mb 84f 79f
9:00pm 13 14 mph 1013.5mb 85f 79f
8:00pm 15 17 mph 1013.1mb 85f 78f
7:00pm 8 10 mph 1013mb 85f 79f
6:00pm 8 9 mph 1012.6mb 85f 78f
5:00pm 14 15 mph 1012.7mb 85f 75f
4:00pm 8 10 mph 1012.5mb 85f 76f
3:00pm 11 13 mph 1012.4mb 85f 79f
2:00pm 9 11 mph 1012.7mb 85f 79f
1:00pm 5 8 mph 1013.4mb 85f 77f
12:00pm 9 11 mph 1013.8mb 85f 79f
11:00am 11 13 mph 1013.6mb 84f 79f
10:00am 7 8 mph 1013.2mb 85f 78f
9:00am 16 18 mph 1012.8mb 85f 77f
8:00am 24 26 mph 1012.3mb 85f 78f
7:00am 22 24 mph 1011.8mb 85f 79f
6:00am 20 21 mph 1011.2mb 85f 79f
5:00am 16 18 mph 1011mb 85f 79f
4:00am 3 5 mph 1011.2mb 85f 73f
3:00am 7 9 mph 1011.8mb 85f 72f
2:00am 7 10 mph 1012.5mb 85f 72f
1:00am 11 13 mph 1013.4mb 86f 72f
12:00am 9 10 mph 1014mb 86f 72f
Fri 09/19 11:00pm 9 13 mph 1014.1mb 86f 73f
10:00pm 5 6 mph 1014mb 86f 74f
9:00pm 7 8 mph 1013.5mb 86f 73f
8:00pm 6 8 mph 1013mb 86f 74f
7:00pm 6 7 mph 1012.7mb 86f 75f
6:00pm 8 9 mph 1012.7mb 86f 76f
5:00pm 2 3 mph 1012.4mb 86f 78f
4:00pm 6 8 mph 1012.6mb 86f 75f
3:00pm 11 13 mph 1013.1mb 86f 73f
2:00pm  -  1 mph 1013.7mb 86f 78f
1:00pm 5 6 mph 1014.1mb 86f 78f
12:00pm 6 7 mph 1014.4mb 86f 79f
11:00am 8 10 mph 1014.1mb 86f 80f
10:00am 8 10 mph 1013.9mb 86f 79f
9:00am 7 10 mph 1013.2mb 86f 78f
8:00am 6 8 mph 1013.2mb 86f 76f
7:00am 7 8 mph 1012.6mb 86f 76f
6:00am 6 7 mph 1011.8mb 86f 76f
5:00am 6 7 mph 1011.8mb 86f 76f
4:00am 6 7 mph 1011.8mb 86f 76f
3:00am 8 10 mph 1012.1mb 87f 77f
2:00am 6 7 mph 1012.4mb 87f 79f
1:00am 7 8 mph 1012.8mb 87f 80f
12:00am 7 8 mph 1013.1mb 87f 81f
Thu 09/18 11:00pm 7 9 mph 1012.9mb 87f 82f
10:00pm 7 8 mph 1012.9mb 87f 83f
9:00pm 9 10 mph 1012.5mb 87f 84f
8:00pm 8 10 mph 1011.6mb 87f 83f
7:00pm 8 10 mph 1011.3mb 87f 83f
6:00pm 9 10 mph 1011.2mb 87f 84f
5:00pm 6 7 mph 1011.2mb 87f 84f
4:00pm 7 9 mph 1011.3mb 87f 84f
3:00pm 8 10 mph 1011.8mb 87f 83f
2:00pm 7 8 mph 1012.3mb 86f 83f
1:00pm 6
mph
1013mb 85f 84f
12:00pm 5 9 mph 1013.7mb 85f 83f
11:00am 9 11 mph 1013.9mb 84f 82f
10:00am 9 11 mph 1013.6mb 84f 80f
9:00am 8 10 mph 1013.1mb 84f 77f